createdAt,value
2022-10-12T00:04:26.263Z,1.30
2022-10-12T00:09:29.657Z,1.37
2022-10-12T00:14:32.972Z,1.30
2022-10-12T00:19:37.692Z,1.27
2022-10-12T00:24:42.957Z,1.20
2022-10-12T00:29:46.492Z,1.50
2022-10-12T00:34:51.291Z,1.30
2022-10-12T00:39:54.561Z,1.20
2022-10-12T00:44:58.026Z,1.13
2022-10-12T00:50:10.236Z,1.43
2022-10-12T00:55:19.027Z,1.07
2022-10-12T01:00:23.845Z,1.10
2022-10-12T01:05:29.369Z,1.40
2022-10-12T01:10:32.861Z,0.93
2022-10-12T01:15:40.587Z,1.10
2022-10-12T01:20:58.792Z,1.10
2022-10-12T01:26:33.609Z,1.27
2022-10-12T01:31:42.797Z,0.97
2022-10-12T01:36:52.807Z,1.10
2022-10-12T01:42:01.323Z,1.20
2022-10-12T01:47:06.252Z,1.07
2022-10-12T01:52:25.531Z,1.30
2022-10-12T01:57:36.847Z,0.90
2022-10-12T02:02:52.905Z,0.83
2022-10-12T02:08:01.953Z,0.90
2022-10-12T02:13:10.186Z,0.90
2022-10-12T02:18:19.882Z,0.80
2022-10-12T02:23:25.334Z,1.00
2022-10-12T02:28:31.534Z,1.07
2022-10-12T02:33:43.724Z,0.80
2022-10-12T02:38:54.453Z,1.20
2022-10-12T02:44:01.232Z,1.20
2022-10-12T02:49:06.923Z,0.90
2022-10-12T02:54:10.681Z,1.00
2022-10-12T02:59:14.868Z,1.10
2022-10-12T03:04:19.622Z,0.97
2022-10-12T03:09:23.141Z,0.63
2022-10-12T03:14:27.478Z,1.23
2022-10-12T03:19:32.370Z,1.20
2022-10-12T03:24:35.744Z,0.93
2022-10-12T03:29:39.197Z,0.90
2022-10-12T03:34:43.899Z,1.60
2022-10-12T03:39:47.383Z,1.47
2022-10-12T03:44:50.721Z,1.20
2022-10-12T03:49:55.351Z,1.30
2022-10-12T03:54:59.127Z,1.90
2022-10-12T04:00:02.611Z,1.70
2022-10-12T04:05:16.634Z,2.23
2022-10-12T04:10:20.974Z,1.50
2022-10-12T04:15:24.449Z,2.60
2022-10-12T04:20:29.877Z,2.23
2022-10-12T04:25:33.509Z,1.97
2022-10-12T04:30:37.156Z,2.10
2022-10-12T04:35:42.184Z,1.87
2022-10-12T04:40:48.899Z,1.50
2022-10-12T04:45:57.418Z,1.50
2022-10-12T04:51:02.488Z,1.10
2022-10-12T04:56:07.348Z,1.50
2022-10-12T05:01:11.290Z,5.40
2022-10-12T05:06:16.545Z,6.57
2022-10-12T05:11:19.962Z,3.53
2022-10-12T05:16:23.315Z,6.77
2022-10-12T05:21:27.929Z,3.57
2022-10-12T05:26:31.329Z,3.10
2022-10-12T05:31:34.785Z,3.70
2022-10-12T05:36:39.535Z,4.37
2022-10-12T05:41:42.813Z,2.67
2022-10-12T05:46:46.215Z,2.00
2022-10-12T05:51:51.023Z,4.10
2022-10-12T05:56:54.549Z,3.80
2022-10-12T06:01:58.321Z,3.70
2022-10-12T06:07:03.263Z,3.77
2022-10-12T06:12:07.085Z,3.37
2022-10-12T06:17:10.746Z,3.70
2022-10-12T06:22:15.467Z,3.30
2022-10-12T06:27:19.991Z,9.87
2022-10-12T06:32:23.350Z,9.80
2022-10-12T06:37:48.981Z,4.50
2022-10-12T06:42:58.314Z,4.73
2022-10-12T06:48:02.154Z,3.27
2022-10-12T06:53:06.919Z,3.83
2022-10-12T06:58:10.398Z,3.23
2022-10-12T07:03:14.697Z,3.17
2022-10-12T07:08:19.424Z,4.90
2022-10-12T07:13:22.837Z,4.93
2022-10-12T07:18:26.388Z,2.47
2022-10-12T07:23:32.249Z,2.80
2022-10-12T07:28:36.733Z,2.03
2022-10-12T07:33:40.280Z,2.00
2022-10-12T07:38:45.693Z,2.63
2022-10-12T07:43:49.078Z,2.77
2022-10-12T07:48:52.524Z,2.50
2022-10-12T07:53:57.624Z,2.80
2022-10-12T07:59:01.110Z,4.27
2022-10-12T08:04:04.902Z,3.20
2022-10-12T08:09:10.388Z,3.33
2022-10-12T08:14:16.007Z,4.07
2022-10-12T08:19:19.684Z,3.17
2022-10-12T08:24:24.641Z,3.40
2022-10-12T08:29:28.162Z,3.30
2022-10-12T08:34:31.954Z,2.97
2022-10-12T08:39:37.038Z,3.37
2022-10-12T08:45:00.883Z,3.47
2022-10-12T08:50:08.030Z,3.80
2022-10-12T08:55:24.944Z,4.00
2022-10-12T09:00:31.216Z,3.90
2022-10-12T09:05:41.504Z,2.90
2022-10-12T09:10:51.002Z,3.10
2022-10-12T09:16:00.282Z,3.37
2022-10-12T09:21:06.934Z,4.83
2022-10-12T09:26:16.863Z,5.50
2022-10-12T09:31:38.503Z,4.23
2022-10-12T09:36:43.164Z,4.90
2022-10-12T09:41:50.174Z,4.60
2022-10-12T09:46:58.326Z,4.47
2022-10-12T09:52:02.097Z,5.17
2022-10-12T09:57:08.451Z,5.30
2022-10-12T10:02:17.261Z,5.23
2022-10-12T10:07:25.818Z,4.73
2022-10-12T10:12:31.092Z,5.30
2022-10-12T10:17:35.436Z,4.30
2022-10-12T10:22:48.807Z,3.87
2022-10-12T10:28:13.751Z,3.50
2022-10-12T10:33:19.440Z,3.40
2022-10-12T10:38:23.152Z,3.40
2022-10-12T10:43:31.332Z,3.47
2022-10-12T10:48:51.505Z,3.70
2022-10-12T10:53:55.264Z,3.43
2022-10-12T10:59:09.877Z,3.30
2022-10-12T11:04:18.671Z,3.20
2022-10-12T11:09:30.620Z,4.40
2022-10-12T11:14:42.383Z,4.17
2022-10-12T11:19:52.257Z,2.60
2022-10-12T11:25:04.138Z,2.53
2022-10-12T11:30:16.270Z,2.50
2022-10-12T11:35:27.863Z,2.43
2022-10-12T11:46:19.302Z,2.60
2022-10-12T11:51:23.699Z,2.80
2022-10-12T11:56:33.720Z,2.93
2022-10-12T12:02:00.290Z,2.70
2022-10-12T12:07:07.998Z,2.70
2022-10-12T12:12:22.178Z,2.87
2022-10-12T12:17:32.152Z,2.67
2022-10-12T12:22:55.106Z,2.10
2022-10-12T12:28:02.530Z,2.60
2022-10-12T12:33:29.273Z,2.67
2022-10-12T12:38:35.269Z,2.80
2022-10-12T12:44:04.270Z,2.57
2022-10-12T12:49:29.272Z,2.13
2022-10-12T12:54:36.023Z,2.40
2022-10-12T13:00:10.029Z,2.43
2022-10-12T13:05:45.188Z,2.33
2022-10-12T13:11:05.457Z,2.60
2022-10-12T13:16:57.241Z,2.40
2022-10-12T13:21:48.836Z,2.73
2022-10-12T13:26:56.853Z,2.33
2022-10-12T13:32:05.207Z,2.13
2022-10-12T13:37:14.159Z,1.97
2022-10-12T13:42:22.493Z,2.30
2022-10-12T13:47:27.867Z,1.97
2022-10-12T13:52:34.646Z,2.07
2022-10-12T13:57:42.757Z,2.50
2022-10-12T14:02:56.234Z,2.37
2022-10-12T14:08:06.867Z,3.10
2022-10-12T14:13:15.722Z,2.00
2022-10-12T14:18:37.665Z,13.90
2022-10-12T14:23:48.128Z,4.57
2022-10-12T14:28:51.898Z,13.43
2022-10-12T14:33:55.869Z,4.10
2022-10-12T14:39:14.270Z,3.40
2022-10-12T14:44:19.769Z,3.90
2022-10-12T14:49:27.210Z,2.97
2022-10-12T14:54:32.103Z,3.17
2022-10-12T14:59:36.723Z,4.37
2022-10-12T15:04:40.136Z,3.93
2022-10-12T15:09:45.698Z,2.47
2022-10-12T15:14:50.379Z,2.97
2022-10-12T15:19:56.935Z,2.77
2022-10-12T15:25:21.298Z,2.77
2022-10-12T15:30:24.740Z,2.70
2022-10-12T15:35:34.273Z,2.83
2022-10-12T15:40:40.229Z,3.63
2022-10-12T15:45:45.210Z,2.77
2022-10-12T15:50:50.278Z,3.10
2022-10-12T15:55:56.870Z,3.50
2022-10-12T16:01:00.477Z,2.97
2022-10-12T16:06:08.871Z,2.77
2022-10-12T16:11:17.987Z,3.03
2022-10-12T16:16:21.561Z,3.10
2022-10-12T16:21:25.029Z,3.00
2022-10-12T16:26:30.060Z,3.00
2022-10-12T16:31:34.311Z,3.33
2022-10-12T16:36:39.040Z,2.87
2022-10-12T16:41:43.785Z,3.03
2022-10-12T16:46:48.129Z,5.00
2022-10-12T16:51:51.743Z,9.30
2022-10-12T16:56:56.555Z,8.20
2022-10-12T17:02:01.026Z,6.17
2022-10-12T17:07:04.787Z,5.37
2022-10-12T17:12:10.181Z,5.80
2022-10-12T17:17:13.633Z,3.63
2022-10-12T17:22:17.648Z,4.63
2022-10-12T17:27:23.055Z,3.60
2022-10-12T17:32:27.158Z,3.80
2022-10-12T17:37:30.598Z,5.30
2022-10-12T17:42:40.951Z,7.93
2022-10-12T17:47:46.920Z,7.10
2022-10-12T17:52:54.038Z,6.80
2022-10-12T17:57:59.152Z,6.97
2022-10-12T18:03:02.826Z,7.03
2022-10-12T18:08:07.348Z,7.30
2022-10-12T18:13:13.010Z,18.77
2022-10-12T18:18:17.958Z,9.90
2022-10-12T18:23:23.180Z,8.80
2022-10-12T18:28:31.839Z,10.70
2022-10-12T18:33:38.427Z,7.97
2022-10-12T18:38:48.119Z,9.97
2022-10-12T18:44:01.584Z,7.60
2022-10-12T18:49:08.561Z,8.73
2022-10-12T18:54:14.243Z,7.70
2022-10-12T18:59:20.317Z,9.43
2022-10-12T19:04:24.122Z,9.10
2022-10-12T19:09:27.694Z,7.70
2022-10-12T19:14:33.300Z,7.43
2022-10-12T19:19:38.231Z,8.50
2022-10-12T19:24:45.148Z,9.03
2022-10-12T19:29:53.092Z,8.80
2022-10-12T19:34:57.010Z,8.37
2022-10-12T19:40:04.011Z,8.77
2022-10-12T19:45:13.260Z,8.20
2022-10-12T19:50:16.904Z,7.17
2022-10-12T19:55:20.406Z,7.60
2022-10-12T20:00:25.157Z,7.47
2022-10-12T20:05:29.076Z,7.53
2022-10-12T20:10:32.511Z,7.00
2022-10-12T20:15:37.356Z,7.30
2022-10-12T20:20:42.440Z,6.90
2022-10-12T20:25:48.329Z,7.20
2022-10-12T20:30:53.684Z,6.47
2022-10-12T20:35:57.223Z,7.30
2022-10-12T20:41:04.403Z,6.57
2022-10-12T20:46:11.671Z,5.57
2022-10-12T20:51:20.328Z,6.03
2022-10-12T20:56:23.768Z,6.37
2022-10-12T21:01:30.005Z,6.67
2022-10-12T21:06:33.444Z,6.33
2022-10-12T21:11:37.228Z,6.27
2022-10-12T21:16:42.175Z,6.37
2022-10-12T21:21:46.667Z,6.43
2022-10-12T21:26:51.791Z,6.03
2022-10-12T21:31:58.296Z,6.37
2022-10-12T21:37:01.669Z,5.80
2022-10-12T21:42:05.414Z,5.70
2022-10-12T21:47:12.061Z,6.20
2022-10-12T21:52:17.679Z,5.60
2022-10-12T21:57:21.514Z,6.53
2022-10-12T22:02:26.148Z,5.70
2022-10-12T22:07:29.686Z,6.43
2022-10-12T22:12:33.202Z,5.77
2022-10-12T22:17:38.168Z,5.40
2022-10-12T22:22:41.607Z,5.47
2022-10-12T22:27:45.019Z,6.20
2022-10-12T22:32:49.870Z,5.20
2022-10-12T22:37:53.225Z,6.20
2022-10-12T22:42:56.637Z,5.40
2022-10-12T22:48:01.436Z,5.40
2022-10-12T22:53:04.836Z,5.27
2022-10-12T22:58:08.705Z,6.30
2022-10-12T23:03:15.268Z,5.37
2022-10-12T23:08:18.948Z,5.30
2022-10-12T23:13:22.418Z,5.30
2022-10-12T23:18:27.177Z,5.43
2022-10-12T23:23:30.715Z,5.17
2022-10-12T23:28:34.692Z,4.40
2022-10-12T23:33:39.760Z,4.63
2022-10-12T23:38:44.542Z,4.77
2022-10-12T23:43:47.971Z,4.90
2022-10-12T23:48:52.758Z,4.20
2022-10-12T23:53:56.096Z,4.70
2022-10-12T23:59:00.496Z,5.07
